createdAt,value
2023-05-05T00:12:09.033Z,84.3
2023-05-05T00:32:09.031Z,84.4
2023-05-05T00:52:09.097Z,86.0
2023-05-05T01:12:13.176Z,85.6
2023-05-05T01:32:09.026Z,85.9
2023-05-05T01:52:09.022Z,86.1
2023-05-05T02:12:09.026Z,84.8
2023-05-05T02:32:08.924Z,86.5
2023-05-05T02:52:08.913Z,86.7
2023-05-05T03:12:08.926Z,87.5
2023-05-05T03:32:08.901Z,87.6
2023-05-05T03:52:08.899Z,88.5
2023-05-05T04:12:08.908Z,88.2
2023-05-05T04:32:08.907Z,88.6
2023-05-05T04:52:08.904Z,89.2
2023-05-05T05:12:08.903Z,88.3
2023-05-05T05:32:08.906Z,85.9
2023-05-05T05:52:08.899Z,85.4
2023-05-05T06:12:08.920Z,84.0
2023-05-05T06:32:08.790Z,81.5
2023-05-05T06:52:08.829Z,80.5
2023-05-05T07:12:08.795Z,77.3
2023-05-05T07:32:08.893Z,71.9
2023-05-05T07:52:08.818Z,72.6
2023-05-05T08:12:08.703Z,70.1
2023-05-05T08:32:08.706Z,65.3
2023-05-05T08:52:08.702Z,63.1
2023-05-05T09:12:08.669Z,62.9
2023-05-05T09:32:08.616Z,62.3
2023-05-05T09:52:08.655Z,63.0
2023-05-05T10:12:08.652Z,62.0
2023-05-05T10:32:08.542Z,60.6
2023-05-05T10:52:08.546Z,61.3
2023-05-05T11:12:08.524Z,59.5
2023-05-05T11:32:08.480Z,58.4
2023-05-05T11:52:08.467Z,61.2
2023-05-05T12:12:08.367Z,61.2
2023-05-05T12:32:08.428Z,58.9
2023-05-05T12:52:08.388Z,58.4
2023-05-05T13:12:08.302Z,57.8
2023-05-05T13:32:08.336Z,56.6
2023-05-05T13:52:08.244Z,58.8
2023-05-05T14:12:08.235Z,59.3
2023-05-05T14:32:08.255Z,58.2
2023-05-05T14:52:08.172Z,59.9
2023-05-05T15:12:08.182Z,58.4
2023-05-05T15:32:08.089Z,58.4
2023-05-05T15:52:08.170Z,60.7
2023-05-05T16:12:08.113Z,58.1
2023-05-05T16:32:08.026Z,58.9
2023-05-05T16:52:08.090Z,61.8
2023-05-05T17:12:07.960Z,66.7
2023-05-05T17:32:08.047Z,66.2
2023-05-05T17:52:07.975Z,67.3
2023-05-05T18:12:07.889Z,67.7
2023-05-05T18:32:07.898Z,70.2
2023-05-05T18:52:07.914Z,71.4
2023-05-05T19:12:07.892Z,87.1
2023-05-05T19:32:07.837Z,90.9
2023-05-05T19:52:08.008Z,91.7
2023-05-05T20:12:07.981Z,92.1
2023-05-05T20:32:07.805Z,92.4
2023-05-05T20:52:07.950Z,92.6
2023-05-05T21:12:07.886Z,92.8
2023-05-05T21:32:07.851Z,92.9
2023-05-05T21:52:07.750Z,93.0
2023-05-05T22:12:07.644Z,93.2
2023-05-05T22:32:07.833Z,93.3
2023-05-05T22:52:07.782Z,93.3
2023-05-05T23:12:07.803Z,93.4
2023-05-05T23:32:07.815Z,93.6
2023-05-05T23:52:07.650Z,93.6
